sensor_id;sensor_type;location;lat;lon;timestamp;P1;durP1;ratioP1;P2;durP2;ratioP2
10537;SDS011;5317;49.048;8.468;2023-05-29T00:00:58;6.50;;;3.73;;
10537;SDS011;5317;49.048;8.468;2023-05-29T00:03:26;5.27;;;3.93;;
10537;SDS011;5317;49.048;8.468;2023-05-29T00:05:52;6.43;;;4.20;;
10537;SDS011;5317;49.048;8.468;2023-05-29T00:08:21;6.10;;;3.60;;
10537;SDS011;5317;49.048;8.468;2023-05-29T00:10:47;5.40;;;4.10;;
10537;SDS011;5317;49.048;8.468;2023-05-29T00:13:14;6.67;;;4.03;;
10537;SDS011;5317;49.048;8.468;2023-05-29T00:15:41;7.53;;;3.83;;
10537;SDS011;5317;49.048;8.468;2023-05-29T00:18:08;6.53;;;3.90;;
10537;SDS011;5317;49.048;8.468;2023-05-29T00:20:35;6.43;;;3.83;;
10537;SDS011;5317;49.048;8.468;2023-05-29T00:23:03;6.17;;;3.87;;
10537;SDS011;5317;49.048;8.468;2023-05-29T00:25:32;6.27;;;3.67;;
10537;SDS011;5317;49.048;8.468;2023-05-29T00:27:59;5.00;;;3.70;;
10537;SDS011;5317;49.048;8.468;2023-05-29T00:30:26;4.10;;;3.50;;
10537;SDS011;5317;49.048;8.468;2023-05-29T00:32:53;5.27;;;4.30;;
10537;SDS011;5317;49.048;8.468;2023-05-29T00:35:19;6.57;;;4.37;;
10537;SDS011;5317;49.048;8.468;2023-05-29T00:37:46;5.07;;;3.50;;
10537;SDS011;5317;49.048;8.468;2023-05-29T00:40:13;5.33;;;4.07;;
10537;SDS011;5317;49.048;8.468;2023-05-29T00:42:41;5.47;;;3.90;;
10537;SDS011;5317;49.048;8.468;2023-05-29T00:45:09;4.90;;;3.80;;
10537;SDS011;5317;49.048;8.468;2023-05-29T00:47:38;5.07;;;3.57;;
10537;SDS011;5317;49.048;8.468;2023-05-29T00:50:05;5.23;;;3.60;;
10537;SDS011;5317;49.048;8.468;2023-05-29T00:52:34;8.47;;;3.97;;
10537;SDS011;5317;49.048;8.468;2023-05-29T00:55:01;6.93;;;3.73;;
10537;SDS011;5317;49.048;8.468;2023-05-29T00:57:29;5.13;;;3.93;;
10537;SDS011;5317;49.048;8.468;2023-05-29T00:59:58;6.77;;;3.80;;
10537;SDS011;5317;49.048;8.468;2023-05-29T01:02:26;4.80;;;3.60;;
10537;SDS011;5317;49.048;8.468;2023-05-29T01:04:55;7.97;;;3.60;;
10537;SDS011;5317;49.048;8.468;2023-05-29T01:07:23;5.40;;;3.50;;
10537;SDS011;5317;49.048;8.468;2023-05-29T01:09:50;4.93;;;3.57;;
10537;SDS011;5317;49.048;8.468;2023-05-29T01:12:21;5.80;;;3.90;;
10537;SDS011;5317;49.048;8.468;2023-05-29T01:14:57;4.93;;;3.70;;
10537;SDS011;5317;49.048;8.468;2023-05-29T01:17:37;5.63;;;3.80;;
10537;SDS011;5317;49.048;8.468;2023-05-29T01:20:17;7.27;;;3.67;;
10537;SDS011;5317;49.048;8.468;2023-05-29T01:25:51;5.63;;;3.47;;
10537;SDS011;5317;49.048;8.468;2023-05-29T01:28:40;4.67;;;3.33;;
10537;SDS011;5317;49.048;8.468;2023-05-29T01:31:10;5.53;;;3.50;;
10537;SDS011;5317;49.048;8.468;2023-05-29T01:33:39;3.67;;;3.33;;
10537;SDS011;5317;49.048;8.468;2023-05-29T01:36:07;5.23;;;3.70;;
10537;SDS011;5317;49.048;8.468;2023-05-29T01:38:36;4.30;;;3.23;;
10537;SDS011;5317;49.048;8.468;2023-05-29T01:41:03;5.77;;;3.83;;
10537;SDS011;5317;49.048;8.468;2023-05-29T01:43:30;4.90;;;3.40;;
10537;SDS011;5317;49.048;8.468;2023-05-29T01:45:59;4.47;;;3.37;;
10537;SDS011;5317;49.048;8.468;2023-05-29T01:48:26;4.83;;;3.30;;
10537;SDS011;5317;49.048;8.468;2023-05-29T01:50:54;4.53;;;3.37;;
10537;SDS011;5317;49.048;8.468;2023-05-29T01:53:21;5.17;;;3.47;;
10537;SDS011;5317;49.048;8.468;2023-05-29T01:55:49;6.63;;;3.97;;
10537;SDS011;5317;49.048;8.468;2023-05-29T01:58:16;7.30;;;3.43;;
10537;SDS011;5317;49.048;8.468;2023-05-29T02:00:46;5.60;;;3.33;;
10537;SDS011;5317;49.048;8.468;2023-05-29T02:03:15;7.77;;;3.83;;
10537;SDS011;5317;49.048;8.468;2023-05-29T02:05:41;4.50;;;3.50;;
10537;SDS011;5317;49.048;8.468;2023-05-29T02:08:08;4.87;;;3.83;;
10537;SDS011;5317;49.048;8.468;2023-05-29T02:10:37;5.67;;;3.63;;
10537;SDS011;5317;49.048;8.468;2023-05-29T02:13:03;5.00;;;3.70;;
10537;SDS011;5317;49.048;8.468;2023-05-29T02:15:30;6.00;;;3.70;;
10537;SDS011;5317;49.048;8.468;2023-05-29T02:17:57;5.20;;;3.77;;
10537;SDS011;5317;49.048;8.468;2023-05-29T02:20:27;6.00;;;3.93;;
10537;SDS011;5317;49.048;8.468;2023-05-29T02:22:54;4.77;;;3.37;;
10537;SDS011;5317;49.048;8.468;2023-05-29T02:25:21;4.70;;;3.80;;
10537;SDS011;5317;49.048;8.468;2023-05-29T02:27:48;4.40;;;3.60;;
10537;SDS011;5317;49.048;8.468;2023-05-29T02:30:14;6.53;;;3.60;;
10537;SDS011;5317;49.048;8.468;2023-05-29T02:32:41;5.07;;;3.67;;
10537;SDS011;5317;49.048;8.468;2023-05-29T02:35:08;6.27;;;3.70;;
10537;SDS011;5317;49.048;8.468;2023-05-29T02:37:36;5.53;;;4.17;;
10537;SDS011;5317;49.048;8.468;2023-05-29T02:40:03;5.57;;;4.00;;
10537;SDS011;5317;49.048;8.468;2023-05-29T02:42:33;5.83;;;3.87;;
10537;SDS011;5317;49.048;8.468;2023-05-29T02:45:00;4.27;;;3.47;;
10537;SDS011;5317;49.048;8.468;2023-05-29T02:47:27;5.37;;;4.00;;
10537;SDS011;5317;49.048;8.468;2023-05-29T02:49:54;6.20;;;4.30;;
10537;SDS011;5317;49.048;8.468;2023-05-29T02:52:21;5.00;;;3.43;;
10537;SDS011;5317;49.048;8.468;2023-05-29T02:54:49;6.37;;;3.80;;
10537;SDS011;5317;49.048;8.468;2023-05-29T02:57:16;5.50;;;4.00;;
10537;SDS011;5317;49.048;8.468;2023-05-29T02:59:43;5.93;;;4.23;;
10537;SDS011;5317;49.048;8.468;2023-05-29T03:02:10;5.83;;;4.07;;
10537;SDS011;5317;49.048;8.468;2023-05-29T03:04:37;4.27;;;3.87;;
10537;SDS011;5317;49.048;8.468;2023-05-29T03:07:04;4.53;;;3.70;;
10537;SDS011;5317;49.048;8.468;2023-05-29T03:09:31;6.07;;;3.90;;
10537;SDS011;5317;49.048;8.468;2023-05-29T03:12:00;5.50;;;4.20;;
10537;SDS011;5317;49.048;8.468;2023-05-29T03:14:27;5.47;;;3.97;;
10537;SDS011;5317;49.048;8.468;2023-05-29T03:16:54;6.43;;;4.00;;
10537;SDS011;5317;49.048;8.468;2023-05-29T03:19:21;6.97;;;4.30;;
10537;SDS011;5317;49.048;8.468;2023-05-29T03:21:48;7.23;;;4.07;;
10537;SDS011;5317;49.048;8.468;2023-05-29T03:24:15;4.50;;;4.00;;
10537;SDS011;5317;49.048;8.468;2023-05-29T03:26:42;5.67;;;4.07;;
10537;SDS011;5317;49.048;8.468;2023-05-29T03:29:10;6.13;;;4.30;;
10537;SDS011;5317;49.048;8.468;2023-05-29T03:31:37;5.03;;;3.77;;
10537;SDS011;5317;49.048;8.468;2023-05-29T03:34:04;5.50;;;4.00;;
10537;SDS011;5317;49.048;8.468;2023-05-29T03:36:31;4.63;;;3.90;;
10537;SDS011;5317;49.048;8.468;2023-05-29T03:38:58;6.63;;;3.77;;
10537;SDS011;5317;49.048;8.468;2023-05-29T03:41:25;6.90;;;4.20;;
10537;SDS011;5317;49.048;8.468;2023-05-29T03:43:52;5.27;;;3.60;;
10537;SDS011;5317;49.048;8.468;2023-05-29T03:46:20;4.20;;;3.80;;
10537;SDS011;5317;49.048;8.468;2023-05-29T03:48:47;5.27;;;3.60;;
10537;SDS011;5317;49.048;8.468;2023-05-29T03:51:14;3.67;;;3.20;;
10537;SDS011;5317;49.048;8.468;2023-05-29T03:53:41;4.17;;;3.77;;
10537;SDS011;5317;49.048;8.468;2023-05-29T03:56:08;5.40;;;3.50;;
10537;SDS011;5317;49.048;8.468;2023-05-29T03:58:35;6.27;;;3.77;;
10537;SDS011;5317;49.048;8.468;2023-05-29T04:01:02;6.80;;;3.53;;
10537;SDS011;5317;49.048;8.468;2023-05-29T04:03:30;5.80;;;4.30;;
10537;SDS011;5317;49.048;8.468;2023-05-29T04:05:57;4.70;;;3.57;;
10537;SDS011;5317;49.048;8.468;2023-05-29T04:08:24;6.90;;;4.17;;
10537;SDS011;5317;49.048;8.468;2023-05-29T04:10:51;4.13;;;3.57;;
10537;SDS011;5317;49.048;8.468;2023-05-29T04:13:19;5.77;;;4.27;;
10537;SDS011;5317;49.048;8.468;2023-05-29T04:15:46;5.23;;;4.07;;
10537;SDS011;5317;49.048;8.468;2023-05-29T04:18:14;6.40;;;4.23;;
10537;SDS011;5317;49.048;8.468;2023-05-29T04:20:42;5.67;;;3.63;;
10537;SDS011;5317;49.048;8.468;2023-05-29T04:23:12;6.23;;;3.90;;
10537;SDS011;5317;49.048;8.468;2023-05-29T04:25:38;6.17;;;4.43;;
10537;SDS011;5317;49.048;8.468;2023-05-29T04:28:05;9.47;;;4.00;;
10537;SDS011;5317;49.048;8.468;2023-05-29T04:30:32;6.37;;;4.27;;
10537;SDS011;5317;49.048;8.468;2023-05-29T04:33:00;5.77;;;4.00;;
10537;SDS011;5317;49.048;8.468;2023-05-29T04:35:28;4.97;;;3.50;;
10537;SDS011;5317;49.048;8.468;2023-05-29T04:37:56;5.37;;;3.97;;
10537;SDS011;5317;49.048;8.468;2023-05-29T04:40:23;5.77;;;3.97;;
10537;SDS011;5317;49.048;8.468;2023-05-29T04:42:49;8.43;;;4.53;;
10537;SDS011;5317;49.048;8.468;2023-05-29T04:45:18;12.90;;;4.87;;
10537;SDS011;5317;49.048;8.468;2023-05-29T04:47:46;14.57;;;5.67;;
10537;SDS011;5317;49.048;8.468;2023-05-29T04:50:13;10.30;;;4.40;;
10537;SDS011;5317;49.048;8.468;2023-05-29T04:52:41;4.97;;;4.03;;
10537;SDS011;5317;49.048;8.468;2023-05-29T04:55:09;7.20;;;4.67;;
10537;SDS011;5317;49.048;8.468;2023-05-29T04:57:37;14.23;;;5.03;;
10537;SDS011;5317;49.048;8.468;2023-05-29T05:00:04;16.23;;;6.83;;
10537;SDS011;5317;49.048;8.468;2023-05-29T05:02:33;11.00;;;5.60;;
10537;SDS011;5317;49.048;8.468;2023-05-29T05:05:00;13.40;;;6.00;;
10537;SDS011;5317;49.048;8.468;2023-05-29T05:07:27;9.23;;;5.47;;
10537;SDS011;5317;49.048;8.468;2023-05-29T05:09:54;6.73;;;4.40;;
10537;SDS011;5317;49.048;8.468;2023-05-29T05:12:22;4.77;;;3.60;;
10537;SDS011;5317;49.048;8.468;2023-05-29T05:14:49;10.37;;;4.30;;
10537;SDS011;5317;49.048;8.468;2023-05-29T05:17:15;6.07;;;4.23;;
10537;SDS011;5317;49.048;8.468;2023-05-29T05:19:42;6.47;;;4.13;;
10537;SDS011;5317;49.048;8.468;2023-05-29T05:22:10;6.07;;;3.93;;
10537;SDS011;5317;49.048;8.468;2023-05-29T05:24:37;4.23;;;3.83;;
10537;SDS011;5317;49.048;8.468;2023-05-29T05:27:04;4.53;;;3.80;;
10537;SDS011;5317;49.048;8.468;2023-05-29T05:29:32;6.83;;;4.03;;
10537;SDS011;5317;49.048;8.468;2023-05-29T05:31:59;5.73;;;3.90;;
10537;SDS011;5317;49.048;8.468;2023-05-29T05:34:26;6.53;;;4.27;;
10537;SDS011;5317;49.048;8.468;2023-05-29T05:36:53;5.40;;;4.00;;
10537;SDS011;5317;49.048;8.468;2023-05-29T05:39:20;7.40;;;4.57;;
10537;SDS011;5317;49.048;8.468;2023-05-29T05:41:47;4.87;;;4.20;;
10537;SDS011;5317;49.048;8.468;2023-05-29T05:44:14;5.73;;;4.13;;
10537;SDS011;5317;49.048;8.468;2023-05-29T05:46:42;6.80;;;4.23;;
10537;SDS011;5317;49.048;8.468;2023-05-29T05:49:09;5.33;;;4.07;;
10537;SDS011;5317;49.048;8.468;2023-05-29T05:51:36;7.23;;;4.67;;
10537;SDS011;5317;49.048;8.468;2023-05-29T05:54:03;5.50;;;4.40;;
10537;SDS011;5317;49.048;8.468;2023-05-29T05:56:30;5.20;;;4.40;;
10537;SDS011;5317;49.048;8.468;2023-05-29T05:58:57;5.40;;;4.10;;
10537;SDS011;5317;49.048;8.468;2023-05-29T06:01:24;7.67;;;4.50;;
10537;SDS011;5317;49.048;8.468;2023-05-29T06:03:52;5.53;;;4.03;;
10537;SDS011;5317;49.048;8.468;2023-05-29T06:06:19;5.80;;;4.00;;
10537;SDS011;5317;49.048;8.468;2023-05-29T06:08:46;4.30;;;3.50;;
10537;SDS011;5317;49.048;8.468;2023-05-29T06:11:14;4.17;;;3.70;;
10537;SDS011;5317;49.048;8.468;2023-05-29T06:13:40;6.30;;;3.93;;
10537;SDS011;5317;49.048;8.468;2023-05-29T06:16:07;4.60;;;4.13;;
10537;SDS011;5317;49.048;8.468;2023-05-29T06:18:34;4.93;;;3.97;;
10537;SDS011;5317;49.048;8.468;2023-05-29T06:21:03;6.37;;;3.90;;
10537;SDS011;5317;49.048;8.468;2023-05-29T06:23:32;4.03;;;3.60;;
10537;SDS011;5317;49.048;8.468;2023-05-29T06:26:01;5.53;;;3.90;;
10537;SDS011;5317;49.048;8.468;2023-05-29T06:28:28;5.43;;;4.13;;
10537;SDS011;5317;49.048;8.468;2023-05-29T06:30:55;5.97;;;4.00;;
10537;SDS011;5317;49.048;8.468;2023-05-29T06:33:22;5.03;;;3.57;;
10537;SDS011;5317;49.048;8.468;2023-05-29T06:35:49;5.93;;;3.87;;
10537;SDS011;5317;49.048;8.468;2023-05-29T06:38:17;5.10;;;3.57;;
10537;SDS011;5317;49.048;8.468;2023-05-29T06:40:44;4.67;;;3.80;;
10537;SDS011;5317;49.048;8.468;2023-05-29T06:43:11;7.60;;;3.63;;
10537;SDS011;5317;49.048;8.468;2023-05-29T06:45:38;4.53;;;3.10;;
10537;SDS011;5317;49.048;8.468;2023-05-29T06:48:05;5.90;;;3.10;;
10537;SDS011;5317;49.048;8.468;2023-05-29T06:50:32;4.17;;;3.67;;
10537;SDS011;5317;49.048;8.468;2023-05-29T06:52:59;4.00;;;3.50;;
10537;SDS011;5317;49.048;8.468;2023-05-29T06:55:28;6.43;;;3.30;;
10537;SDS011;5317;49.048;8.468;2023-05-29T06:57:54;3.60;;;3.20;;
10537;SDS011;5317;49.048;8.468;2023-05-29T07:00:21;3.97;;;3.43;;
10537;SDS011;5317;49.048;8.468;2023-05-29T07:02:49;4.47;;;3.67;;
10537;SDS011;5317;49.048;8.468;2023-05-29T07:05:17;4.87;;;3.50;;
10537;SDS011;5317;49.048;8.468;2023-05-29T07:07:44;5.07;;;3.27;;
10537;SDS011;5317;49.048;8.468;2023-05-29T07:10:10;4.83;;;3.17;;
10537;SDS011;5317;49.048;8.468;2023-05-29T07:12:39;3.97;;;2.90;;
10537;SDS011;5317;49.048;8.468;2023-05-29T07:15:06;4.77;;;3.40;;
10537;SDS011;5317;49.048;8.468;2023-05-29T07:17:33;5.30;;;3.10;;
10537;SDS011;5317;49.048;8.468;2023-05-29T07:20:00;5.47;;;3.03;;
10537;SDS011;5317;49.048;8.468;2023-05-29T07:22:27;4.57;;;3.43;;
10537;SDS011;5317;49.048;8.468;2023-05-29T07:24:54;4.53;;;3.47;;
10537;SDS011;5317;49.048;8.468;2023-05-29T07:27:21;5.93;;;3.57;;
10537;SDS011;5317;49.048;8.468;2023-05-29T07:29:49;4.70;;;3.20;;
10537;SDS011;5317;49.048;8.468;2023-05-29T07:32:16;3.50;;;3.17;;
10537;SDS011;5317;49.048;8.468;2023-05-29T07:34:43;5.67;;;3.20;;
10537;SDS011;5317;49.048;8.468;2023-05-29T07:37:10;4.33;;;3.10;;
10537;SDS011;5317;49.048;8.468;2023-05-29T07:39:37;4.37;;;3.30;;
10537;SDS011;5317;49.048;8.468;2023-05-29T07:42:04;7.23;;;3.43;;
10537;SDS011;5317;49.048;8.468;2023-05-29T07:44:32;5.90;;;3.43;;
10537;SDS011;5317;49.048;8.468;2023-05-29T07:47:00;4.57;;;3.33;;
10537;SDS011;5317;49.048;8.468;2023-05-29T07:49:27;7.43;;;3.10;;
10537;SDS011;5317;49.048;8.468;2023-05-29T07:51:54;3.67;;;3.27;;
10537;SDS011;5317;49.048;8.468;2023-05-29T07:54:21;4.87;;;3.00;;
10537;SDS011;5317;49.048;8.468;2023-05-29T07:56:49;3.63;;;3.13;;
10537;SDS011;5317;49.048;8.468;2023-05-29T07:59:16;4.90;;;2.90;;
10537;SDS011;5317;49.048;8.468;2023-05-29T08:01:43;4.40;;;3.40;;
10537;SDS011;5317;49.048;8.468;2023-05-29T08:04:11;4.43;;;3.40;;
10537;SDS011;5317;49.048;8.468;2023-05-29T08:06:38;4.43;;;3.50;;
10537;SDS011;5317;49.048;8.468;2023-05-29T08:09:07;5.03;;;3.47;;
10537;SDS011;5317;49.048;8.468;2023-05-29T08:11:35;3.13;;;2.83;;
10537;SDS011;5317;49.048;8.468;2023-05-29T08:14:02;3.53;;;3.10;;
10537;SDS011;5317;49.048;8.468;2023-05-29T08:16:28;4.20;;;3.30;;
10537;SDS011;5317;49.048;8.468;2023-05-29T08:18:55;4.80;;;3.13;;
10537;SDS011;5317;49.048;8.468;2023-05-29T08:21:24;4.93;;;3.40;;
10537;SDS011;5317;49.048;8.468;2023-05-29T08:23:51;3.80;;;3.30;;
10537;SDS011;5317;49.048;8.468;2023-05-29T08:26:18;4.47;;;3.23;;
10537;SDS011;5317;49.048;8.468;2023-05-29T08:28:45;4.07;;;3.33;;
10537;SDS011;5317;49.048;8.468;2023-05-29T08:31:12;3.90;;;3.27;;
10537;SDS011;5317;49.048;8.468;2023-05-29T08:33:39;4.10;;;3.20;;
10537;SDS011;5317;49.048;8.468;2023-05-29T08:36:06;4.47;;;3.20;;
10537;SDS011;5317;49.048;8.468;2023-05-29T08:38:35;4.20;;;3.63;;
10537;SDS011;5317;49.048;8.468;2023-05-29T08:41:02;4.27;;;3.00;;
10537;SDS011;5317;49.048;8.468;2023-05-29T08:43:30;4.63;;;3.23;;
10537;SDS011;5317;49.048;8.468;2023-05-29T08:45:59;3.20;;;2.77;;
10537;SDS011;5317;49.048;8.468;2023-05-29T08:48:27;4.47;;;3.50;;
10537;SDS011;5317;49.048;8.468;2023-05-29T08:50:55;3.70;;;3.30;;
10537;SDS011;5317;49.048;8.468;2023-05-29T08:53:24;3.67;;;2.87;;
10537;SDS011;5317;49.048;8.468;2023-05-29T08:55:53;5.20;;;3.40;;
10537;SDS011;5317;49.048;8.468;2023-05-29T08:58:21;4.27;;;3.17;;
10537;SDS011;5317;49.048;8.468;2023-05-29T09:00:49;5.03;;;3.53;;
10537;SDS011;5317;49.048;8.468;2023-05-29T09:03:16;4.63;;;3.50;;
10537;SDS011;5317;49.048;8.468;2023-05-29T09:05:45;4.03;;;3.00;;
10537;SDS011;5317;49.048;8.468;2023-05-29T09:08:12;6.33;;;3.00;;
10537;SDS011;5317;49.048;8.468;2023-05-29T09:10:40;5.50;;;3.33;;
10537;SDS011;5317;49.048;8.468;2023-05-29T09:13:09;4.53;;;3.10;;
10537;SDS011;5317;49.048;8.468;2023-05-29T09:15:37;4.73;;;3.50;;
10537;SDS011;5317;49.048;8.468;2023-05-29T09:18:05;5.37;;;3.60;;
10537;SDS011;5317;49.048;8.468;2023-05-29T09:20:33;4.70;;;3.50;;
10537;SDS011;5317;49.048;8.468;2023-05-29T09:23:02;5.93;;;4.10;;
10537;SDS011;5317;49.048;8.468;2023-05-29T09:25:32;4.47;;;3.63;;
10537;SDS011;5317;49.048;8.468;2023-05-29T09:28:00;4.03;;;3.20;;
10537;SDS011;5317;49.048;8.468;2023-05-29T09:30:34;3.67;;;3.17;;
10537;SDS011;5317;49.048;8.468;2023-05-29T09:33:03;4.67;;;3.27;;
10537;SDS011;5317;49.048;8.468;2023-05-29T09:35:34;3.90;;;3.50;;
10537;SDS011;5317;49.048;8.468;2023-05-29T09:38:01;4.07;;;3.10;;
10537;SDS011;5317;49.048;8.468;2023-05-29T09:40:32;4.50;;;3.17;;
10537;SDS011;5317;49.048;8.468;2023-05-29T09:43:03;5.07;;;3.37;;
10537;SDS011;5317;49.048;8.468;2023-05-29T09:45:33;5.10;;;3.30;;
10537;SDS011;5317;49.048;8.468;2023-05-29T09:48:04;5.27;;;3.10;;
10537;SDS011;5317;49.048;8.468;2023-05-29T09:50:32;5.07;;;3.30;;
10537;SDS011;5317;49.048;8.468;2023-05-29T09:53:00;5.47;;;3.90;;
10537;SDS011;5317;49.048;8.468;2023-05-29T09:55:28;5.37;;;3.93;;
10537;SDS011;5317;49.048;8.468;2023-05-29T09:57:57;4.67;;;3.50;;
10537;SDS011;5317;49.048;8.468;2023-05-29T10:00:25;4.40;;;3.50;;
10537;SDS011;5317;49.048;8.468;2023-05-29T10:02:53;4.23;;;3.37;;
10537;SDS011;5317;49.048;8.468;2023-05-29T10:05:20;5.63;;;3.60;;
10537;SDS011;5317;49.048;8.468;2023-05-29T10:07:47;4.87;;;3.37;;
10537;SDS011;5317;49.048;8.468;2023-05-29T10:10:19;3.60;;;3.27;;
10537;SDS011;5317;49.048;8.468;2023-05-29T10:12:48;5.10;;;3.50;;
10537;SDS011;5317;49.048;8.468;2023-05-29T10:15:15;5.53;;;3.60;;
10537;SDS011;5317;49.048;8.468;2023-05-29T10:17:48;6.40;;;4.07;;
10537;SDS011;5317;49.048;8.468;2023-05-29T10:20:19;4.87;;;4.10;;
10537;SDS011;5317;49.048;8.468;2023-05-29T10:22:47;5.27;;;3.43;;
10537;SDS011;5317;49.048;8.468;2023-05-29T10:25:18;3.90;;;3.43;;
10537;SDS011;5317;49.048;8.468;2023-05-29T10:27:46;4.07;;;3.67;;
10537;SDS011;5317;49.048;8.468;2023-05-29T10:30:15;4.50;;;3.40;;
10537;SDS011;5317;49.048;8.468;2023-05-29T10:33:00;4.47;;;3.40;;
10537;SDS011;5317;49.048;8.468;2023-05-29T10:35:46;5.97;;;3.60;;
10537;SDS011;5317;49.048;8.468;2023-05-29T10:38:15;5.97;;;3.50;;
10537;SDS011;5317;49.048;8.468;2023-05-29T10:40:43;3.50;;;3.20;;
10537;SDS011;5317;49.048;8.468;2023-05-29T10:43:29;4.07;;;3.50;;
10537;SDS011;5317;49.048;8.468;2023-05-29T10:45:57;4.77;;;3.53;;
10537;SDS011;5317;49.048;8.468;2023-05-29T10:48:37;4.80;;;3.53;;
10537;SDS011;5317;49.048;8.468;2023-05-29T10:51:23;4.97;;;3.70;;
10537;SDS011;5317;49.048;8.468;2023-05-29T10:53:54;4.63;;;3.60;;
10537;SDS011;5317;49.048;8.468;2023-05-29T10:56:21;4.77;;;3.33;;
10537;SDS011;5317;49.048;8.468;2023-05-29T10:58:55;5.90;;;3.87;;
10537;SDS011;5317;49.048;8.468;2023-05-29T11:01:26;6.87;;;3.70;;
10537;SDS011;5317;49.048;8.468;2023-05-29T11:04:00;5.43;;;3.47;;
10537;SDS011;5317;49.048;8.468;2023-05-29T11:06:57;4.50;;;3.13;;
10537;SDS011;5317;49.048;8.468;2023-05-29T11:09:26;5.23;;;3.50;;
10537;SDS011;5317;49.048;8.468;2023-05-29T11:14:44;7.27;;;3.70;;
10537;SDS011;5317;49.048;8.468;2023-05-29T11:20:16;4.77;;;3.47;;
10537;SDS011;5317;49.048;8.468;2023-05-29T11:22:53;4.13;;;3.70;;
10537;SDS011;5317;49.048;8.468;2023-05-29T11:25:27;5.00;;;3.30;;
10537;SDS011;5317;49.048;8.468;2023-05-29T11:27:55;4.10;;;3.50;;
10537;SDS011;5317;49.048;8.468;2023-05-29T11:30:22;4.30;;;3.33;;
10537;SDS011;5317;49.048;8.468;2023-05-29T11:32:50;4.33;;;3.43;;
10537;SDS011;5317;49.048;8.468;2023-05-29T11:35:19;5.77;;;3.40;;
10537;SDS011;5317;49.048;8.468;2023-05-29T11:37:48;4.47;;;3.50;;
10537;SDS011;5317;49.048;8.468;2023-05-29T11:40:16;5.27;;;3.30;;
10537;SDS011;5317;49.048;8.468;2023-05-29T11:42:44;4.50;;;3.40;;
10537;SDS011;5317;49.048;8.468;2023-05-29T11:45:13;7.03;;;3.63;;
10537;SDS011;5317;49.048;8.468;2023-05-29T11:47:50;5.47;;;3.20;;
10537;SDS011;5317;49.048;8.468;2023-05-29T11:50:18;3.60;;;2.93;;
10537;SDS011;5317;49.048;8.468;2023-05-29T11:52:46;4.50;;;3.37;;
10537;SDS011;5317;49.048;8.468;2023-05-29T11:55:13;4.63;;;3.20;;
10537;SDS011;5317;49.048;8.468;2023-05-29T11:57:41;4.77;;;3.57;;
10537;SDS011;5317;49.048;8.468;2023-05-29T12:00:12;4.33;;;3.27;;
10537;SDS011;5317;49.048;8.468;2023-05-29T12:02:39;3.43;;;3.13;;
10537;SDS011;5317;49.048;8.468;2023-05-29T12:05:08;4.83;;;3.37;;
10537;SDS011;5317;49.048;8.468;2023-05-29T12:07:35;3.47;;;3.07;;
10537;SDS011;5317;49.048;8.468;2023-05-29T12:10:09;3.37;;;3.07;;
10537;SDS011;5317;49.048;8.468;2023-05-29T12:12:36;7.03;;;3.83;;
10537;SDS011;5317;49.048;8.468;2023-05-29T12:15:06;5.13;;;3.23;;
10537;SDS011;5317;49.048;8.468;2023-05-29T12:17:34;3.67;;;3.30;;
10537;SDS011;5317;49.048;8.468;2023-05-29T12:20:01;6.47;;;3.40;;
10537;SDS011;5317;49.048;8.468;2023-05-29T12:22:32;4.30;;;3.43;;
10537;SDS011;5317;49.048;8.468;2023-05-29T12:25:05;6.37;;;3.70;;
10537;SDS011;5317;49.048;8.468;2023-05-29T12:27:33;4.70;;;3.80;;
10537;SDS011;5317;49.048;8.468;2023-05-29T12:30:02;4.70;;;3.43;;
10537;SDS011;5317;49.048;8.468;2023-05-29T12:32:36;3.60;;;3.00;;
10537;SDS011;5317;49.048;8.468;2023-05-29T12:35:12;4.17;;;3.00;;
10537;SDS011;5317;49.048;8.468;2023-05-29T12:37:43;4.70;;;3.10;;
10537;SDS011;5317;49.048;8.468;2023-05-29T12:40:15;5.93;;;3.60;;
10537;SDS011;5317;49.048;8.468;2023-05-29T12:42:46;4.10;;;3.17;;
10537;SDS011;5317;49.048;8.468;2023-05-29T12:45:13;4.47;;;3.10;;
10537;SDS011;5317;49.048;8.468;2023-05-29T12:47:51;4.50;;;3.40;;
10537;SDS011;5317;49.048;8.468;2023-05-29T12:50:22;3.83;;;2.93;;
10537;SDS011;5317;49.048;8.468;2023-05-29T12:52:53;4.20;;;3.20;;
10537;SDS011;5317;49.048;8.468;2023-05-29T12:55:21;4.83;;;3.33;;
10537;SDS011;5317;49.048;8.468;2023-05-29T12:57:48;3.00;;;2.70;;
10537;SDS011;5317;49.048;8.468;2023-05-29T13:00:15;7.13;;;3.67;;
10537;SDS011;5317;49.048;8.468;2023-05-29T13:02:43;3.93;;;3.23;;
10537;SDS011;5317;49.048;8.468;2023-05-29T13:05:11;3.43;;;3.13;;
10537;SDS011;5317;49.048;8.468;2023-05-29T13:07:38;3.90;;;3.00;;
10537;SDS011;5317;49.048;8.468;2023-05-29T13:10:06;3.67;;;2.90;;
10537;SDS011;5317;49.048;8.468;2023-05-29T13:12:33;3.80;;;3.13;;
10537;SDS011;5317;49.048;8.468;2023-05-29T13:15:01;4.90;;;2.90;;
10537;SDS011;5317;49.048;8.468;2023-05-29T13:17:28;3.40;;;3.10;;
10537;SDS011;5317;49.048;8.468;2023-05-29T13:19:55;3.23;;;2.87;;
10537;SDS011;5317;49.048;8.468;2023-05-29T13:22:23;4.37;;;2.93;;
10537;SDS011;5317;49.048;8.468;2023-05-29T13:24:55;3.00;;;2.70;;
10537;SDS011;5317;49.048;8.468;2023-05-29T13:27:22;8.03;;;3.13;;
10537;SDS011;5317;49.048;8.468;2023-05-29T13:29:49;4.87;;;2.90;;
10537;SDS011;5317;49.048;8.468;2023-05-29T13:32:16;5.63;;;3.13;;
10537;SDS011;5317;49.048;8.468;2023-05-29T13:34:43;4.80;;;3.13;;
10537;SDS011;5317;49.048;8.468;2023-05-29T13:37:10;3.13;;;2.83;;
10537;SDS011;5317;49.048;8.468;2023-05-29T13:39:38;3.40;;;3.10;;
10537;SDS011;5317;49.048;8.468;2023-05-29T13:42:05;4.50;;;2.83;;
10537;SDS011;5317;49.048;8.468;2023-05-29T13:44:33;2.97;;;2.70;;
10537;SDS011;5317;49.048;8.468;2023-05-29T13:47:01;3.47;;;2.90;;
10537;SDS011;5317;49.048;8.468;2023-05-29T13:49:28;3.70;;;2.60;;
10537;SDS011;5317;49.048;8.468;2023-05-29T13:51:55;4.80;;;2.90;;
10537;SDS011;5317;49.048;8.468;2023-05-29T13:54:23;5.30;;;2.97;;
10537;SDS011;5317;49.048;8.468;2023-05-29T13:56:51;3.13;;;2.80;;
10537;SDS011;5317;49.048;8.468;2023-05-29T13:59:18;3.57;;;2.47;;
10537;SDS011;5317;49.048;8.468;2023-05-29T14:01:45;4.13;;;2.97;;
10537;SDS011;5317;49.048;8.468;2023-05-29T14:04:12;3.80;;;2.90;;
10537;SDS011;5317;49.048;8.468;2023-05-29T14:06:38;3.53;;;3.00;;
10537;SDS011;5317;49.048;8.468;2023-05-29T14:09:06;4.60;;;3.07;;
10537;SDS011;5317;49.048;8.468;2023-05-29T14:11:35;4.33;;;3.00;;
10537;SDS011;5317;49.048;8.468;2023-05-29T14:14:03;3.53;;;3.23;;
10537;SDS011;5317;49.048;8.468;2023-05-29T14:16:30;3.07;;;2.70;;
10537;SDS011;5317;49.048;8.468;2023-05-29T14:18:57;3.27;;;2.53;;
10537;SDS011;5317;49.048;8.468;2023-05-29T14:21:24;3.10;;;2.77;;
10537;SDS011;5317;49.048;8.468;2023-05-29T14:23:51;3.20;;;2.80;;
10537;SDS011;5317;49.048;8.468;2023-05-29T14:26:18;4.13;;;3.10;;
10537;SDS011;5317;49.048;8.468;2023-05-29T14:28:45;3.40;;;2.93;;
10537;SDS011;5317;49.048;8.468;2023-05-29T14:31:13;3.23;;;2.73;;
10537;SDS011;5317;49.048;8.468;2023-05-29T14:33:40;4.23;;;3.03;;
10537;SDS011;5317;49.048;8.468;2023-05-29T14:36:08;4.97;;;3.33;;
10537;SDS011;5317;49.048;8.468;2023-05-29T14:38:34;3.20;;;2.70;;
10537;SDS011;5317;49.048;8.468;2023-05-29T14:41:02;3.57;;;2.63;;
10537;SDS011;5317;49.048;8.468;2023-05-29T14:43:29;4.17;;;3.10;;
10537;SDS011;5317;49.048;8.468;2023-05-29T14:45:55;2.80;;;2.50;;
10537;SDS011;5317;49.048;8.468;2023-05-29T14:48:24;3.03;;;2.70;;
10537;SDS011;5317;49.048;8.468;2023-05-29T14:50:51;3.80;;;2.70;;
10537;SDS011;5317;49.048;8.468;2023-05-29T14:53:18;3.23;;;2.57;;
10537;SDS011;5317;49.048;8.468;2023-05-29T14:55:46;4.67;;;2.67;;
10537;SDS011;5317;49.048;8.468;2023-05-29T14:58:13;3.03;;;2.77;;
10537;SDS011;5317;49.048;8.468;2023-05-29T15:00:39;3.03;;;2.60;;
10537;SDS011;5317;49.048;8.468;2023-05-29T15:03:06;2.80;;;2.53;;
10537;SDS011;5317;49.048;8.468;2023-05-29T15:05:34;2.63;;;2.43;;
10537;SDS011;5317;49.048;8.468;2023-05-29T15:08:01;3.00;;;2.73;;
10537;SDS011;5317;49.048;8.468;2023-05-29T15:10:28;3.90;;;2.50;;
10537;SDS011;5317;49.048;8.468;2023-05-29T15:12:55;2.80;;;2.50;;
10537;SDS011;5317;49.048;8.468;2023-05-29T15:15:23;3.73;;;2.70;;